Terminal Aerodrome Forecast
Issued by NWS

Home | Current Version | Previous Version | Graphics & Text | Print | Product List | Glossary On
Versions: 1 2 3 4 5 6 7 8 9 10 11 12 13 14 15 16 17
000
FTUS43 KABR 221720
TAFPIR
TAF
KPIR 221720Z 2218/2318 17023G26KT P6SM BKN024 OVC050
     FM230200 17014KT P6SM VCTS SCT040CB BKN080
     FM230600 31007KT P6SM VCSH OVC070
     FM230900 29007KT P6SM BKN110=

USA.gov is the U.S. government's official web portal to all federal, state and local government web resources and services.